createdAt,value
2022-11-24T00:00:01.551Z,1.3
2022-11-24T00:10:01.057Z,1.2
2022-11-24T00:20:01.170Z,1.2
2022-11-24T00:30:00.950Z,1.2
2022-11-24T00:40:00.125Z,1.2
2022-11-24T00:50:01.007Z,1.3
2022-11-24T01:00:01.029Z,1.1
2022-11-24T01:10:01.056Z,1.2
2022-11-24T01:20:01.266Z,1.2
2022-11-24T01:30:00.168Z,1.1
2022-11-24T01:40:00.991Z,1.3
2022-11-24T01:50:01.321Z,1.2
2022-11-24T02:00:00.981Z,1.4
2022-11-24T02:10:01.026Z,1.5
2022-11-24T02:20:00.147Z,1.4
2022-11-24T02:30:01.576Z,1.3
2022-11-24T02:40:01.220Z,1.4
2022-11-24T02:50:01.548Z,1.5
2022-11-24T03:00:00.118Z,1.4
2022-11-24T03:10:01.022Z,1.2
2022-11-24T03:20:04.500Z,1.3
2022-11-24T03:30:00.119Z,1.0
2022-11-24T03:40:00.122Z,1.2
2022-11-24T03:50:02.126Z,1.2
2022-11-24T04:00:01.000Z,1.2
2022-11-24T04:20:00.964Z,1.1
2022-11-24T04:30:02.299Z,1.3
2022-11-24T04:40:00.137Z,1.1
2022-11-24T04:50:01.546Z,1.1
2022-11-24T05:00:02.203Z,1.2
2022-11-24T05:10:01.070Z,1.2
2022-11-24T05:20:01.240Z,1.3
2022-11-24T05:30:00.140Z,1.1
2022-11-24T05:40:00.161Z,1.0
2022-11-24T05:50:01.623Z,1.0
2022-11-24T06:00:00.128Z,1.0
2022-11-24T06:10:01.017Z,0.8
2022-11-24T06:20:00.168Z,0.9
2022-11-24T06:30:01.068Z,0.7
2022-11-24T06:40:02.243Z,1.0
2022-11-24T06:50:02.403Z,1.1
2022-11-24T07:00:01.085Z,0.9
2022-11-24T07:10:01.265Z,0.9
2022-11-24T07:20:01.253Z,1.0
2022-11-24T07:30:01.294Z,1.2
2022-11-24T07:40:00.964Z,1.1
2022-11-24T07:50:01.051Z,1.2
2022-11-24T08:00:02.705Z,1.2
2022-11-24T08:10:01.272Z,1.4
2022-11-24T08:20:01.276Z,1.6
2022-11-24T08:30:00.212Z,1.9
2022-11-24T08:40:01.189Z,2.0
2022-11-24T08:50:01.310Z,2.3
2022-11-24T09:00:00.108Z,2.3
2022-11-24T09:20:02.591Z,2.7
2022-11-24T09:30:01.273Z,3.0
2022-11-24T09:40:01.055Z,3.2
2022-11-24T09:50:02.204Z,3.1
2022-11-24T10:00:01.288Z,3.0
2022-11-24T10:10:01.094Z,3.3
2022-11-24T10:20:01.003Z,3.9
2022-11-24T10:30:01.245Z,4.2
2022-11-24T10:40:01.243Z,4.7
2022-11-24T10:50:01.260Z,5.3
2022-11-24T11:00:01.302Z,5.9
2022-11-24T11:10:01.327Z,6.3
2022-11-24T11:20:02.437Z,5.7
2022-11-24T11:40:01.624Z,5.4
2022-11-24T11:50:00.990Z,5.7
2022-11-24T12:00:03.945Z,5.7
2022-11-24T12:10:01.458Z,5.9
2022-11-24T12:20:00.135Z,5.6
2022-11-24T12:30:01.335Z,5.8
2022-11-24T12:40:01.235Z,6.0
2022-11-24T12:50:01.078Z,6.5
2022-11-24T13:00:00.997Z,6.0
2022-11-24T13:10:01.310Z,6.0
2022-11-24T13:20:00.134Z,6.1
2022-11-24T13:30:01.125Z,6.1
2022-11-24T13:40:01.012Z,6.0
2022-11-24T13:50:01.633Z,6.5
2022-11-24T14:00:01.531Z,6.4
2022-11-24T14:10:01.024Z,6.1
2022-11-24T14:20:00.151Z,6.2
2022-11-24T14:30:01.945Z,5.9
2022-11-24T14:40:00.125Z,5.7
2022-11-24T14:50:00.219Z,5.6
2022-11-24T15:00:03.174Z,5.5
2022-11-24T15:10:00.211Z,5.5
2022-11-24T15:20:01.029Z,5.6
2022-11-24T15:30:01.260Z,5.5
2022-11-24T15:40:01.016Z,5.4
2022-11-24T15:50:01.307Z,5.3
2022-11-24T16:00:01.054Z,5.0
2022-11-24T16:10:01.470Z,4.9
2022-11-24T16:20:01.245Z,5.3
2022-11-24T16:30:02.249Z,5.3
2022-11-24T16:40:01.262Z,5.1
2022-11-24T16:50:01.695Z,4.9
2022-11-24T17:00:01.763Z,4.7
2022-11-24T17:10:01.304Z,4.5
2022-11-24T17:20:01.283Z,4.5
2022-11-24T17:30:01.072Z,4.4
2022-11-24T17:40:26.614Z,4.5
2022-11-24T17:50:01.566Z,4.3
2022-11-24T18:00:01.237Z,4.1
2022-11-24T18:10:01.031Z,4.2
2022-11-24T18:20:01.304Z,4.1
2022-11-24T18:30:01.791Z,4.4
2022-11-24T18:40:01.256Z,4.5
2022-11-24T18:50:01.312Z,4.5
2022-11-24T19:00:01.042Z,4.5
2022-11-24T19:10:02.156Z,4.4
2022-11-24T19:20:01.559Z,4.0
2022-11-24T19:30:01.317Z,3.8
2022-11-24T19:40:02.371Z,3.5
2022-11-24T19:50:02.879Z,3.5
2022-11-24T20:00:02.929Z,3.4
2022-11-24T20:10:06.186Z,3.4
2022-11-24T20:20:01.029Z,3.4
2022-11-24T20:30:01.097Z,3.3
2022-11-24T20:40:01.065Z,3.1
2022-11-24T20:50:01.344Z,3.2
2022-11-24T21:00:00.985Z,2.9
2022-11-24T21:10:01.251Z,2.7
2022-11-24T21:20:01.448Z,3.0
2022-11-24T21:30:01.077Z,3.4
2022-11-24T21:40:01.504Z,3.3
2022-11-24T21:50:01.052Z,3.2
2022-11-24T22:00:01.314Z,3.1
2022-11-24T22:10:01.237Z,3.3
2022-11-24T22:20:00.150Z,3.3
2022-11-24T22:30:01.107Z,3.0
2022-11-24T22:40:01.212Z,3.1
2022-11-24T22:50:01.031Z,3.2
2022-11-24T23:00:01.107Z,3.4
2022-11-24T23:10:01.238Z,3.7
2022-11-24T23:20:04.419Z,3.5
2022-11-24T23:30:00.136Z,3.6
2022-11-24T23:40:01.292Z,3.7
2022-11-24T23:50:01.983Z,3.9
